Time;durP1;ratioP1;P1;durP2;ratioP2;P2;SDS_P1;SDS_P2;PMS_P1;PMS_P2;Temp;Humidity;BMP_temperature;BMP_pressure;BME280_temperature;BME280_humidity;BME280_pressure;Samples;Min_cycle;Max_cycle;Signal;HPM_P1;HPM_P2
2021/10/31 00:03:26;;;;;;;13.93;12.65;;;;;;;11.42;84.01;99518.44;10179558;29;20135;-73
2021/10/31 00:08:28;;;;;;;13.52;12.25;;;;;;;11.38;84.19;99511.69;10197055;29;20059;-73
2021/10/31 00:13:29;;;;;;;12.38;11.18;;;;;;;11.32;84.18;99506.00;10204891;28;20072;-75
2021/10/31 00:18:31;;;;;;;13.02;11.73;;;;;;;11.28;84.89;99528.56;10206602;29;20059;-72
2021/10/31 00:23:32;;;;;;;14.02;12.32;;;;;;;11.25;85.08;99522.72;10163936;29;20130;-72
2021/10/31 00:28:33;;;;;;;12.05;10.95;;;;;;;11.26;85.53;99535.03;10175829;29;20047;-72
2021/10/31 00:33:35;;;;;;;14.90;12.00;;;;;;;11.28;85.70;99528.56;10176516;29;20841;-71
2021/10/31 00:38:36;;;;;;;13.68;12.32;;;;;;;11.23;85.87;99530.84;10174138;29;20107;-73
2021/10/31 00:43:38;;;;;;;13.20;11.90;;;;;;;11.22;86.23;99539.81;10178543;29;20056;-72
2021/10/31 00:48:39;;;;;;;12.65;11.45;;;;;;;11.31;86.02;99549.59;10157964;29;20094;-72
2021/10/31 00:53:42;;;;;;;13.23;11.82;;;;;;;11.38;85.27;99551.69;10165410;29;20052;-72
2021/10/31 00:58:44;;;;;;;12.88;11.60;;;;;;;11.23;86.68;99552.16;10160203;29;20115;-73
2021/10/31 01:03:45;;;;;;;12.85;11.57;;;;;;;11.38;85.68;99543.69;10181277;29;20127;-72
2021/10/31 01:09:15;;;;;;;12.27;11.07;;;;;;;11.43;84.82;99546.75;10177008;29;20054;-72
2021/10/31 01:14:37;;;;;;;11.93;10.73;;;;;;;11.48;84.40;99545.34;10208483;29;20047;-72
2021/10/31 01:19:54;;;;;;;12.25;11.02;;;;;;;11.51;84.26;99554.84;10177481;29;20135;-72
2021/10/31 01:25:10;;;;;;;14.13;12.65;;;;;;;11.48;85.07;99539.16;10184560;29;20103;-74
2021/10/31 01:30:33;;;;;;;14.30;12.68;;;;;;;11.48;85.00;99539.16;10168788;29;20123;-72
2021/10/31 01:35:59;;;;;;;12.70;11.57;;;;;;;11.54;85.49;99548.41;10163956;29;20143;-72
2021/10/31 01:41:14;;;;;;;13.40;12.18;;;;;;;11.56;86.01;99549.94;10168137;29;20139;-74
2021/10/31 01:46:45;;;;;;;12.70;11.50;;;;;;;11.53;86.36;99533.38;10145893;29;20143;-68
2021/10/31 01:51:57;;;;;;;12.55;11.38;;;;;;;11.60;85.95;99529.97;10163600;29;20070;-73
2021/10/31 01:57:01;;;;;;;12.93;11.63;;;;;;;11.68;84.83;99535.41;10169784;29;20048;-71
2021/10/31 02:02:05;;;;;;;13.70;12.05;;;;;;;11.68;84.39;99514.09;10172587;29;20098;-72
2021/10/31 02:07:09;;;;;;;12.25;10.95;;;;;;;11.66;84.54;99507.22;10157784;29;20111;-71
2021/10/31 02:12:16;;;;;;;12.75;11.55;;;;;;;11.54;85.46;99505.75;10158599;29;20119;-72
2021/10/31 02:17:19;;;;;;;12.40;11.20;;;;;;;11.50;85.34;99532.69;10172991;29;20068;-71
2021/10/31 02:22:26;;;;;;;13.05;11.75;;;;;;;11.61;84.80;99542.31;10172312;29;20147;-71
2021/10/31 02:27:31;;;;;;;12.75;11.30;;;;;;;11.61;85.25;99539.66;10166966;29;22270;-73
2021/10/31 02:32:33;;;;;;;13.80;12.38;;;;;;;11.64;85.41;99534.03;10183189;29;20079;-73
2021/10/31 02:37:37;;;;;;;12.65;11.35;;;;;;;11.65;85.52;99517.06;10168396;29;20040;-71
2021/10/31 02:42:40;;;;;;;12.10;10.90;;;;;;;11.61;85.85;99514.84;10171570;29;20139;-73
2021/10/31 02:47:53;;;;;;;13.93;12.63;;;;;;;11.57;86.14;99516.94;10172152;29;20131;-72
2021/10/31 02:53:16;;;;;;;14.00;12.80;;;;;;;11.54;86.54;99522.56;10213659;29;20048;-73
2021/10/31 02:58:20;;;;;;;14.60;13.10;;;;;;;11.58;86.20;99507.16;10219245;29;20036;-74
2021/10/31 03:03:22;;;;;;;13.73;12.32;;;;;;;11.57;86.17;99516.13;10154790;29;20143;-72
2021/10/31 03:08:25;;;;;;;14.02;12.63;;;;;;;11.54;86.17;99501.25;10166879;29;20225;-72
2021/10/31 03:13:28;;;;;;;13.52;12.18;;;;;;;11.57;86.15;99505.47;10175191;29;20135;-72
2021/10/31 03:18:29;;;;;;;13.57;11.15;;;;;;;11.50;86.08;99518.53;10163956;29;20134;-73
2021/10/31 03:23:31;;;;;;;12.20;11.00;;;;;;;11.49;86.48;99509.69;10182730;29;20453;-72
2021/10/31 03:28:33;;;;;;;12.50;11.30;;;;;;;11.46;86.59;99509.16;10180525;29;20526;-76
2021/10/31 03:33:34;;;;;;;12.80;11.45;;;;;;;11.44;86.24;99514.63;10163066;29;20565;-73
2021/10/31 03:38:35;;;;;;;12.77;11.48;;;;;;;11.42;86.14;99518.44;10156737;29;20082;-75
2021/10/31 03:43:37;;;;;;;13.00;11.70;;;;;;;11.45;85.92;99526.13;10175012;29;20054;-73
2021/10/31 03:48:38;;;;;;;12.40;11.30;;;;;;;11.35;86.30;99520.84;10180749;29;20462;-72
2021/10/31 03:53:40;;;;;;;13.23;11.88;;;;;;;11.32;86.23;99524.63;10182012;29;20666;-73
2021/10/31 03:58:41;;;;;;;12.05;10.85;;;;;;;11.32;86.27;99523.81;10168911;29;20703;-72
2021/10/31 04:03:43;;;;;;;13.18;11.95;;;;;;;11.35;86.16;99517.31;10174767;29;20118;-72
2021/10/31 04:08:45;;;;;;;14.15;12.65;;;;;;;11.35;86.05;99525.31;10179484;29;20541;-72
2021/10/31 04:13:46;;;;;;;12.57;11.27;;;;;;;11.34;85.76;99521.00;10159212;29;20135;-75
2021/10/31 04:18:48;;;;;;;12.60;11.30;;;;;;;11.30;85.90;99525.75;10179598;29;20048;-73
2021/10/31 04:23:49;;;;;;;12.73;11.20;;;;;;;11.25;85.94;99512.88;10176324;29;20131;-73
2021/10/31 04:28:51;;;;;;;13.60;12.20;;;;;;;11.25;86.08;99536.03;10173495;29;20134;-73
2021/10/31 04:33:52;;;;;;;13.57;12.23;;;;;;;11.14;86.52;99545.88;10178251;29;20127;-72
2021/10/31 04:38:55;;;;;;;12.63;11.40;;;;;;;11.14;86.49;99537.06;10183094;29;20544;-72
2021/10/31 04:43:57;;;;;;;13.10;11.73;;;;;;;11.16;85.76;99537.75;10173298;29;20047;-71
2021/10/31 04:48:59;;;;;;;14.40;13.02;;;;;;;11.15;85.54;99538.72;10158663;29;20131;-72
2021/10/31 04:54:00;;;;;;;13.48;12.13;;;;;;;11.12;85.98;99541.66;10176154;29;20770;-72
2021/10/31 04:59:02;;;;;;;14.73;13.32;;;;;;;11.13;86.09;99535.38;10164071;29;20048;-73
2021/10/31 05:04:04;;;;;;;15.02;13.70;;;;;;;11.12;85.66;99539.00;10175334;29;20063;-72
2021/10/31 05:09:05;;;;;;;14.98;13.65;;;;;;;11.02;86.19;99522.19;10177011;29;20135;-72
2021/10/31 05:14:07;;;;;;;16.65;14.98;;;;;;;11.06;86.03;99521.78;10172841;29;20459;-73
2021/10/31 05:19:09;;;;;;;15.32;13.82;;;;;;;11.06;85.82;99521.78;10176240;29;20135;-72
2021/10/31 05:24:10;;;;;;;17.33;15.55;;;;;;;11.05;85.73;99524.56;10170616;29;20601;-74
2021/10/31 05:29:11;;;;;;;16.23;14.73;;;;;;;11.07;85.83;99535.94;10152822;29;20052;-71
2021/10/31 05:34:13;;;;;;;16.10;14.48;;;;;;;11.09;85.56;99536.63;10201983;29;20056;-72
2021/10/31 05:39:15;;;;;;;15.80;14.30;;;;;;;11.10;85.68;99530.31;10204577;29;20052;-73
2021/10/31 05:44:16;;;;;;;16.33;14.68;;;;;;;11.10;85.59;99519.69;10212163;29;20537;-71
2021/10/31 05:49:18;;;;;;;15.88;14.18;;;;;;;11.19;85.66;99513.47;10177612;29;20142;-74
2021/10/31 05:54:19;;;;;;;17.63;15.85;;;;;;;11.20;85.75;99509.84;10173173;29;20059;-74
2021/10/31 05:59:20;;;;;;;17.55;15.95;;;;;;;11.18;86.26;99498.47;10185215;28;20510;-74
2021/10/31 06:04:25;;;;;;;15.93;14.50;;;;;;;11.26;86.36;99498.59;10170265;29;20342;-72
2021/10/31 06:09:26;;;;;;;16.70;15.20;;;;;;;11.34;86.27;99479.19;10178355;29;20196;-72
2021/10/31 06:14:27;;;;;;;16.83;15.13;;;;;;;11.41;86.15;99474.09;10165832;29;20502;-73
2021/10/31 06:19:31;;;;;;;16.80;15.23;;;;;;;11.48;86.08;99470.72;10173563;29;20059;-70
2021/10/31 06:24:32;;;;;;;16.63;15.20;;;;;;;11.55;86.21;99475.47;10170270;29;20043;-72
2021/10/31 06:29:34;;;;;;;16.17;14.57;;;;;;;11.56;86.28;99477.97;10169670;29;20557;-70
2021/10/31 06:34:35;;;;;;;14.93;13.52;;;;;;;11.63;86.29;99489.72;10168443;29;20055;-71
2021/10/31 06:39:37;;;;;;;18.02;16.42;;;;;;;11.66;86.79;99470.75;10158342;29;20593;-71
2021/10/31 06:44:38;;;;;;;17.38;15.60;;;;;;;11.71;86.97;99466.78;10188117;28;20131;-71
2021/10/31 06:49:42;;;;;;;19.17;16.88;;;;;;;11.68;87.18;99466.09;10172578;29;20255;-74
2021/10/31 06:54:44;;;;;;;18.13;16.33;;;;;;;11.71;87.70;99469.44;10181858;29;20052;-72
2021/10/31 06:59:45;;;;;;;18.08;16.20;;;;;;;11.74;87.66;99477.16;10176915;29;20295;-70
2021/10/31 07:04:46;;;;;;;18.02;16.30;;;;;;;11.84;87.25;99468.13;10198434;29;20052;-71
2021/10/31 07:09:48;;;;;;;17.52;15.93;;;;;;;12.02;86.38;99462.84;10159347;29;20565;-72
2021/10/31 07:14:50;;;;;;;15.85;14.32;;;;;;;12.15;86.28;99462.44;10157723;29;20458;-72
2021/10/31 07:19:51;;;;;;;16.98;15.45;;;;;;;12.22;86.08;99457.34;10170674;29;20157;-71
2021/10/31 07:24:53;;;;;;;17.23;15.52;;;;;;;12.32;85.91;99447.38;10171436;29;20566;-72
2021/10/31 07:29:55;;;;;;;17.95;16.25;;;;;;;12.35;85.74;99431.06;10171187;29;20139;-72
2021/10/31 07:34:56;;;;;;;17.90;16.20;;;;;;;12.50;84.91;99438.53;10170998;29;20131;-69
2021/10/31 07:39:58;;;;;;;15.85;14.25;;;;;;;12.55;84.13;99437.06;10167733;29;20058;-72
2021/10/31 07:45:00;;;;;;;16.25;14.48;;;;;;;12.80;83.60;99439.88;10171386;29;20134;-72
2021/10/31 07:50:02;;;;;;;16.83;15.32;;;;;;;13.05;82.48;99426.69;10154453;29;20051;-72
2021/10/31 07:55:07;;;;;;;17.00;15.30;;;;;;;13.38;81.13;99421.50;10165352;29;20516;-73
2021/10/31 08:00:08;;;;;;;;;;;;;;;13.62;79.93;99418.06;10173627;29;20316;-72
2021/10/31 08:05:10;;;;;;;13.75;12.45;;;;;;;13.73;79.72;99412.38;10177017;29;20025;-70
2021/10/31 08:10:12;;;;;;;13.23;11.85;;;;;;;13.86;79.68;99400.38;10166256;29;20139;-73
2021/10/31 08:15:13;;;;;;;10.05;9.13;;;;;;;13.93;79.42;99404.03;10194189;29;20031;-74
2021/10/31 08:20:16;;;;;;;9.43;8.52;;;;;;;13.99;79.59;99397.19;10198250;29;20066;-72
2021/10/31 08:25:17;;;;;;;10.77;9.77;;;;;;;14.03;79.53;99385.16;10189758;29;20106;-72
2021/10/31 08:30:23;;;;;;;8.55;7.75;;;;;;;14.14;79.32;99372.28;10178972;29;20055;-74
2021/10/31 08:35:24;;;;;;;8.70;7.90;;;;;;;14.32;78.82;99369.44;10173882;29;20103;-72
2021/10/31 08:40:26;;;;;;;9.43;8.52;;;;;;;14.46;78.71;99362.53;10192712;29;20084;-73
2021/10/31 08:45:27;;;;;;;8.90;8.00;;;;;;;14.62;78.04;99352.81;10175730;29;20665;-72
2021/10/31 08:50:29;;;;;;;9.48;7.97;;;;;;;14.97;76.95;99348.03;10161000;29;20542;-69
2021/10/31 08:55:31;;;;;;;8.32;7.55;;;;;;;15.47;75.21;99338.69;10173335;29;20138;-73
2021/10/31 09:00:33;;;;;;;8.00;7.13;;;;;;;16.05;72.88;99335.63;10173208;29;20074;-72
2021/10/31 09:05:36;;;;;;;7.53;6.82;;;;;;;16.56;70.42;99341.16;10171527;29;20150;-71
2021/10/31 09:10:38;;;;;;;7.03;6.43;;;;;;;16.68;69.80;99337.97;10160566;23;20131;-67
2021/10/31 09:15:39;;;;;;;6.38;5.60;;;;;;;17.27;68.17;99329.06;10122612;29;20085;-67
2021/10/31 09:20:41;;;;;;;6.47;5.88;;;;;;;18.03;64.59;99333.97;10112813;29;20078;-67
2021/10/31 09:25:43;;;;;;;5.85;5.35;;;;;;;19.02;61.00;99332.97;10119060;29;20059;-66
2021/10/31 09:30:45;;;;;;;5.75;5.25;;;;;;;19.83;58.31;99333.19;10106271;29;20056;-68
2021/10/31 09:35:48;;;;;;;6.47;5.20;;;;;;;20.47;56.49;99324.41;10105554;29;20219;-68
2021/10/31 09:40:49;;;;;;;5.40;4.90;;;;;;;22.62;51.09;99302.31;10120726;29;20438;-68
2021/10/31 09:45:51;;;;;;;6.03;5.45;;;;;;;24.26;46.12;99305.88;10103754;29;20048;-68
2021/10/31 09:50:53;;;;;;;5.93;5.05;;;;;;;24.40;45.44;99303.75;10117826;29;20820;-69
2021/10/31 09:55:56;;;;;;;6.15;5.53;;;;;;;24.23;45.49;99311.81;10123135;29;20167;-67
2021/10/31 10:00:57;;;;;;;6.40;5.32;;;;;;;23.26;48.37;99291.94;10123247;29;20289;-68
2021/10/31 10:06:12;;;;;;;6.88;5.22;;;;;;;22.59;49.56;99292.75;10127730;29;20127;-68
2021/10/31 10:11:18;;;;;;;7.07;6.47;;;;;;;22.02;50.66;99286.59;10108625;29;20156;-69
2021/10/31 10:16:29;;;;;;;6.18;5.60;;;;;;;21.49;53.53;99285.13;10118997;29;20056;-67
2021/10/31 10:21:31;;;;;;;5.53;5.13;;;;;;;20.96;54.55;99283.56;10119370;29;20067;-68
2021/10/31 10:26:36;;;;;;;5.53;5.07;;;;;;;20.98;54.78;99284.16;10116867;29;20527;-66
2021/10/31 10:31:38;;;;;;;5.43;4.53;;;;;;;21.74;53.02;99279.78;10122743;29;20162;-68
2021/10/31 10:36:46;;;;;;;4.95;4.50;;;;;;;21.11;54.80;99275.16;10119282;29;20060;-68
2021/10/31 10:41:50;;;;;;;5.80;5.30;;;;;;;20.81;56.17;99246.78;10120376;29;20096;-67
2021/10/31 10:46:58;;;;;;;3.67;3.28;;;;;;;22.55;51.21;99241.91;10115947;29;20142;-66
2021/10/31 10:52:23;;;;;;;4.22;3.33;;;;;;;24.44;46.43;99238.81;10117211;29;20097;-68
2021/10/31 10:57:27;;;;;;;3.63;3.25;;;;;;;23.01;49.68;99226.09;10116372;29;20058;-68
2021/10/31 11:02:28;;;;;;;5.68;3.05;;;;;;;22.11;51.55;99212.09;10105704;29;20056;-69
2021/10/31 11:07:34;;;;;;;7.10;3.45;;;;;;;21.60;53.66;99196.97;10123057;29;20063;-68
2021/10/31 11:12:38;;;;;;;4.60;3.60;;;;;;;21.11;55.10;99189.41;10101533;29;20211;-67
2021/10/31 11:17:42;;;;;;;4.80;3.30;;;;;;;21.26;56.05;99190.94;10115549;29;20053;-68
2021/10/31 11:22:46;;;;;;;4.35;3.95;;;;;;;21.40;55.71;99180.88;10107469;29;20066;-68
2021/10/31 11:27:48;;;;;;;6.68;3.47;;;;;;;21.97;54.44;99173.50;10127554;29;20135;-68
2021/10/31 11:32:51;;;;;;;5.47;3.57;;;;;;;21.80;54.06;99180.53;10120987;29;20063;-68
2021/10/31 11:37:55;;;;;;;4.45;3.47;;;;;;;21.24;55.48;99168.69;10113251;29;20107;-68
2021/10/31 11:42:58;;;;;;;4.75;3.63;;;;;;;20.61;57.42;99159.47;10115722;29;20059;-69
2021/10/31 11:48:19;;;;;;;3.70;3.23;;;;;;;20.28;58.92;99142.38;10128375;29;20060;-68
2021/10/31 11:53:21;;;;;;;3.92;3.53;;;;;;;19.95;59.92;99131.66;10111314;29;20431;-68
2021/10/31 11:58:30;;;;;;;4.38;3.45;;;;;;;19.60;61.19;99119.25;10125165;29;20056;-70
2021/10/31 12:03:41;;;;;;;3.97;3.53;;;;;;;19.40;62.31;99103.09;10103926;29;20052;-68
2021/10/31 12:08:55;;;;;;;3.42;3.13;;;;;;;19.42;62.65;99101.00;10120147;29;20148;-68
2021/10/31 12:13:58;;;;;;;5.50;3.20;;;;;;;19.88;62.08;99103.88;10094004;29;20126;-69
2021/10/31 12:19:09;;;;;;;3.03;2.72;;;;;;;19.57;62.63;99103.47;10118055;29;21746;-69
2021/10/31 12:24:14;;;;;;;2.28;1.75;;;;;;;19.31;63.59;99082.78;10078247;29;20215;-69
2021/10/31 12:29:29;;;;;;;2.30;1.88;;;;;;;19.18;64.33;99089.00;10106133;29;20143;-69
2021/10/31 12:34:37;;;;;;;2.20;1.90;;;;;;;19.13;65.08;99080.72;10119031;29;20052;-69
2021/10/31 12:39:41;;;;;;;2.33;2.13;;;;;;;19.08;65.42;99083.22;10098996;29;20125;-69
2021/10/31 12:45:04;;;;;;;4.45;1.73;;;;;;;19.35;64.87;99064.28;10119876;29;20071;-69
2021/10/31 12:50:09;;;;;;;1.95;1.55;;;;;;;19.73;63.37;99056.31;10117562;29;20072;-68
2021/10/31 12:55:16;;;;;;;2.15;1.70;;;;;;;20.06;63.11;99058.09;10123126;29;20201;-68
2021/10/31 13:00:18;;;;;;;5.25;1.80;;;;;;;20.27;61.91;99065.06;10134845;29;20086;-70
2021/10/31 13:05:26;;;;;;;3.78;2.20;;;;;;;20.07;62.29;99054.38;10144466;29;20067;-69
2021/10/31 13:10:31;;;;;;;2.55;1.70;;;;;;;19.82;63.70;99045.34;10123917;29;20719;-69
2021/10/31 13:15:36;;;;;;;3.00;1.98;;;;;;;19.62;64.43;99051.56;10124795;29;20143;-69
2021/10/31 13:20:40;;;;;;;2.58;1.65;;;;;;;19.49;64.70;99035.44;10121685;29;20052;-69
2021/10/31 13:25:52;;;;;;;1.92;1.73;;;;;;;19.70;63.98;99031.63;10122711;29;20143;-71
2021/10/31 13:30:56;;;;;;;1.95;1.65;;;;;;;19.68;64.04;99023.75;10123464;29;20135;-69
2021/10/31 13:36:08;;;;;;;1.73;1.20;;;;;;;19.41;64.68;99017.56;10103810;29;20162;-70
2021/10/31 13:41:10;;;;;;;3.28;1.30;;;;;;;19.18;65.24;99013.47;10124649;29;20051;-68
2021/10/31 13:46:11;;;;;;;3.15;1.27;;;;;;;18.92;66.29;99025.13;10122761;29;20051;-68
2021/10/31 13:51:13;;;;;;;1.83;1.30;;;;;;;18.71;66.85;99018.84;10108082;29;20056;-68
2021/10/31 13:56:14;;;;;;;2.13;1.55;;;;;;;18.65;67.25;99011.59;10106424;29;20051;-67
2021/10/31 14:01:36;;;;;;;2.42;1.80;;;;;;;18.80;68.17;98997.09;10122423;29;20060;-69
2021/10/31 14:06:40;;;;;;;3.15;1.90;;;;;;;18.97;68.50;98979.47;10106768;29;20044;-68
2021/10/31 14:12:02;;;;;;;;;;;;;;;18.96;68.21;98977.00;10120670;29;20134;-66
2021/10/31 14:17:18;;;;;;;3.70;2.17;;;;;;;18.95;68.72;98960.00;10119649;29;19923;-68
2021/10/31 14:22:25;;;;;;;2.83;1.80;;;;;;;18.86;68.92;98962.06;10119067;29;20087;-68
2021/10/31 14:27:29;;;;;;;2.50;2.13;;;;;;;18.98;68.86;98951.47;10113423;29;20829;-68
2021/10/31 14:32:56;;;;;;;3.58;2.40;;;;;;;19.17;68.12;98943.56;10091241;29;20052;-68
2021/10/31 14:38:08;;;;;;;2.70;1.65;;;;;;;19.01;68.57;98937.56;10117337;29;20135;-68
2021/10/31 14:43:22;;;;;;;4.70;2.92;;;;;;;18.75;69.45;98927.66;10120699;29;20061;-69
2021/10/31 14:48:28;;;;;;;4.38;3.30;;;;;;;18.68;69.54;98948.38;10100842;29;20063;-68
2021/10/31 14:53:30;;;;;;;5.63;3.05;;;;;;;18.54;70.48;98937.59;10102726;29;20076;-68
2021/10/31 14:58:31;;;;;;;3.25;2.95;;;;;;;18.42;70.85;98922.25;10111857;29;20127;-68
2021/10/31 15:03:37;;;;;;;3.13;2.83;;;;;;;18.35;71.29;98917.69;10128202;29;20053;-68
2021/10/31 15:08:41;;;;;;;4.93;4.35;;;;;;;18.28;72.47;98903.38;10130081;29;20167;-68
2021/10/31 15:13:42;;;;;;;6.38;4.88;;;;;;;18.18;73.67;98900.31;10153828;23;20055;-73
2021/10/31 15:18:44;;;;;;;6.63;5.90;;;;;;;18.08;75.21;98895.31;10137740;29;20052;-75
2021/10/31 15:23:46;;;;;;;7.88;6.10;;;;;;;17.97;75.98;98880.59;10144330;29;20067;-72
2021/10/31 15:28:48;;;;;;;7.38;5.68;;;;;;;17.88;76.77;98862.09;10140219;29;20670;-70
2021/10/31 15:33:49;;;;;;;6.63;5.85;;;;;;;17.82;76.84;98858.38;10140551;29;20111;-72
2021/10/31 15:38:50;;;;;;;5.88;5.28;;;;;;;17.76;76.85;98869.94;10146199;29;20076;-75
2021/10/31 15:43:53;;;;;;;5.90;5.13;;;;;;;17.72;77.15;98837.25;10123975;29;20135;-70
2021/10/31 15:48:55;;;;;;;6.13;4.93;;;;;;;17.69;77.31;98832.28;10146967;29;20076;-74
2021/10/31 15:53:56;;;;;;;4.97;4.50;;;;;;;17.63;77.51;98823.16;10142281;29;20063;-72
2021/10/31 15:58:58;;;;;;;6.43;4.82;;;;;;;17.61;77.40;98810.91;10141436;29;20075;-73
2021/10/31 16:04:03;;;;;;;4.28;3.42;;;;;;;17.54;76.07;98796.66;10122699;29;20083;-71
2021/10/31 16:09:05;;;;;;;3.80;3.33;;;;;;;17.50;75.56;98785.47;10145691;29;20063;-72
2021/10/31 16:14:06;;;;;;;3.67;3.03;;;;;;;17.45;75.51;98788.75;10134761;29;20705;-71
2021/10/31 16:19:08;;;;;;;6.32;4.22;;;;;;;17.45;75.46;98782.56;10127743;29;20127;-74
2021/10/31 16:24:12;;;;;;;3.65;3.35;;;;;;;17.39;75.48;98764.56;10141671;29;21341;-73
2021/10/31 16:29:19;;;;;;;4.53;4.07;;;;;;;17.39;75.12;98761.88;10129543;29;20470;-72
2021/10/31 16:34:21;;;;;;;6.18;4.30;;;;;;;17.33;74.73;98751.94;10141058;29;20145;-73
2021/10/31 16:39:23;;;;;;;2.30;2.05;;;;;;;17.30;74.39;98755.84;10141291;29;20048;-74
2021/10/31 16:44:24;;;;;;;2.53;2.10;;;;;;;17.22;73.98;98746.13;10120292;29;20171;-71
2021/10/31 16:49:26;;;;;;;4.47;2.85;;;;;;;17.23;73.66;98753.13;10138884;29;20107;-72
2021/10/31 16:54:28;;;;;;;3.40;2.65;;;;;;;17.25;73.47;98740.31;10141270;29;20171;-73
2021/10/31 16:59:30;;;;;;;3.13;2.55;;;;;;;17.22;73.61;98724.59;10148434;29;20455;-73
2021/10/31 17:04:31;;;;;;;3.72;2.53;;;;;;;17.23;73.96;98720.84;10152283;29;20475;-74
2021/10/31 17:09:33;;;;;;;4.50;3.28;;;;;;;17.24;74.34;98727.09;10142159;29;20080;-74
2021/10/31 17:14:35;;;;;;;5.57;4.80;;;;;;;17.19;73.98;98729.53;10145127;29;20067;-74
2021/10/31 17:19:36;;;;;;;9.60;6.22;;;;;;;17.14;74.54;98716.72;10154330;29;20047;-73
2021/10/31 17:24:38;;;;;;;5.68;4.75;;;;;;;17.00;74.60;98710.47;10142381;29;20052;-73
2021/10/31 17:29:39;;;;;;;5.90;4.82;;;;;;;16.92;75.10;98703.44;10124996;29;20159;-73
2021/10/31 17:34:41;;;;;;;4.03;3.67;;;;;;;16.83;75.06;98707.31;10138353;29;20064;-74
2021/10/31 17:39:42;;;;;;;4.20;3.80;;;;;;;16.73;74.54;98720.28;10144905;29;20071;-75
2021/10/31 17:44:51;;;;;;;3.35;2.97;;;;;;;16.71;74.41;98716.97;10125502;29;20119;-74
2021/10/31 17:50:01;;;;;;;3.83;2.38;;;;;;;16.63;72.56;98731.41;10137537;29;20511;-75
2021/10/31 17:55:06;;;;;;;4.07;3.40;;;;;;;16.57;74.16;98730.34;10117416;29;20072;-73
2021/10/31 18:00:15;;;;;;;4.80;2.60;;;;;;;16.46;72.25;98736.28;10144528;29;20611;-74
2021/10/31 18:05:18;;;;;;;4.05;3.05;;;;;;;16.43;72.49;98736.69;10119010;29;20051;-74
2021/10/31 18:10:21;;;;;;;3.85;3.50;;;;;;;16.36;71.63;98725.06;10133934;29;20758;-72
2021/10/31 18:15:23;;;;;;;5.63;3.22;;;;;;;16.30;71.54;98715.13;10136846;29;20052;-73
2021/10/31 18:20:24;;;;;;;3.25;2.88;;;;;;;16.27;71.04;98737.81;10142079;29;20067;-73
2021/10/31 18:25:28;;;;;;;3.60;3.30;;;;;;;16.22;72.34;98708.88;10134526;29;20595;-74
2021/10/31 18:30:34;;;;;;;4.15;2.85;;;;;;;16.18;70.90;98720.22;10130609;29;20131;-73
2021/10/31 18:35:36;;;;;;;4.45;2.92;;;;;;;16.09;70.17;98708.81;10133142;29;20070;-70
2021/10/31 18:40:38;;;;;;;5.50;2.85;;;;;;;16.06;70.24;98714.56;10132577;29;20244;-73
2021/10/31 18:45:39;;;;;;;3.20;2.90;;;;;;;15.99;71.39;98709.16;10133199;29;20108;-73
2021/10/31 18:50:42;;;;;;;2.92;2.70;;;;;;;15.93;70.56;98715.31;10133296;29;20076;-72
2021/10/31 18:55:44;;;;;;;3.38;2.33;;;;;;;15.92;70.93;98712.84;10136499;29;20052;-72
2021/10/31 19:00:45;;;;;;;4.38;2.80;;;;;;;15.87;71.27;98695.47;10112289;29;20242;-73
2021/10/31 19:05:47;;;;;;;3.75;3.10;;;;;;;15.87;71.86;98692.78;10128099;29;20090;-74
2021/10/31 19:10:49;;;;;;;4.93;3.30;;;;;;;15.85;70.91;98692.16;10134960;29;20068;-73
2021/10/31 19:15:53;;;;;;;4.80;3.00;;;;;;;15.83;71.37;98683.44;10112672;29;21116;-73
2021/10/31 19:20:58;;;;;;;8.77;6.50;;;;;;;15.80;71.57;98689.22;10133136;29;20152;-73
2021/10/31 19:26:04;;;;;;;6.57;4.15;;;;;;;15.79;72.27;98684.03;10131126;29;20068;-74
2021/10/31 19:31:12;;;;;;;5.97;5.28;;;;;;;15.76;72.59;98682.53;10125089;29;20052;-75
2021/10/31 19:36:14;;;;;;;8.18;5.40;;;;;;;15.72;73.63;98686.66;10114116;29;20059;-74
2021/10/31 19:41:18;;;;;;;6.10;5.22;;;;;;;15.72;73.60;98692.03;10110047;29;20048;-74
2021/10/31 19:46:20;;;;;;;5.85;5.10;;;;;;;15.71;73.29;98685.00;10130508;29;20445;-73
2021/10/31 19:51:22;;;;;;;6.00;4.90;;;;;;;15.66;73.59;98682.06;10136483;29;20056;-71
2021/10/31 19:56:25;;;;;;;4.80;4.40;;;;;;;15.63;73.30;98680.59;10133362;29;20291;-73
2021/10/31 20:01:27;;;;;;;5.57;4.10;;;;;;;15.65;74.08;98675.03;10137850;29;20111;-73
2021/10/31 20:06:30;;;;;;;7.25;4.70;;;;;;;15.52;72.83;98665.88;10136166;29;20060;-73
2021/10/31 20:11:32;;;;;;;4.60;4.00;;;;;;;15.42;73.19;98665.38;10123268;29;20138;-73
2021/10/31 20:16:35;;;;;;;5.20;4.70;;;;;;;15.38;73.02;98659.56;10139593;29;20079;-72
2021/10/31 20:21:47;;;;;;;4.55;4.13;;;;;;;15.29;72.51;98660.72;10136519;29;20056;-73
2021/10/31 20:26:49;;;;;;;4.25;3.85;;;;;;;15.26;72.63;98660.28;10120039;29;20077;-74
2021/10/31 20:31:54;;;;;;;4.13;3.60;;;;;;;15.32;71.82;98660.34;10124855;29;20369;-74
2021/10/31 20:36:56;;;;;;;4.28;3.50;;;;;;;15.37;70.79;98646.34;10117880;29;20159;-72
2021/10/31 20:41:57;;;;;;;4.93;3.85;;;;;;;15.37;70.60;98654.41;10131930;29;20108;-74
2021/10/31 20:46:59;;;;;;;5.45;3.78;;;;;;;15.48;71.42;98653.88;10132713;29;20143;-73
2021/10/31 20:52:00;;;;;;;4.88;3.40;;;;;;;15.55;71.11;98651.22;10133415;29;20479;-74
2021/10/31 20:57:03;;;;;;;6.70;3.60;;;;;;;15.61;71.26;98652.31;10109325;29;20143;-73
2021/10/31 21:02:05;;;;;;;4.88;3.50;;;;;;;15.61;69.18;98668.41;10135663;29;20080;-71
2021/10/31 21:07:06;;;;;;;5.47;2.83;;;;;;;15.55;68.48;98649.41;10117655;29;20062;-71
2021/10/31 21:12:08;;;;;;;3.83;3.20;;;;;;;15.54;68.61;98646.91;10134558;29;20127;-74
2021/10/31 21:17:09;;;;;;;4.90;3.03;;;;;;;15.54;69.13;98634.31;10118002;29;20058;-72
2021/10/31 21:22:11;;;;;;;4.57;2.80;;;;;;;15.56;70.32;98634.94;10150181;29;20079;-72
2021/10/31 21:27:14;;;;;;;2.80;2.60;;;;;;;15.60;69.73;98640.78;10127212;29;20459;-74
2021/10/31 21:32:16;;;;;;;2.40;2.20;;;;;;;15.65;70.20;98629.44;10133627;29;20052;-71
2021/10/31 21:37:17;;;;;;;3.22;2.70;;;;;;;15.73;71.94;98629.28;10159993;29;20052;-74
2021/10/31 21:42:19;;;;;;;2.95;2.67;;;;;;;15.69;72.63;98606.59;10124934;29;20074;-72
2021/10/31 21:47:21;;;;;;;3.35;3.05;;;;;;;15.69;72.88;98612.75;10131926;29;20087;-74
2021/10/31 21:52:22;;;;;;;4.03;3.50;;;;;;;15.68;73.33;98610.28;10144078;29;20088;-74
2021/10/31 21:57:24;;;;;;;3.95;3.55;;;;;;;15.61;73.53;98609.41;10145234;29;20071;-73
2021/10/31 22:02:25;;;;;;;5.07;4.45;;;;;;;15.62;73.96;98621.81;10123849;29;20135;-73
2021/10/31 22:07:27;;;;;;;5.00;4.00;;;;;;;15.58;73.46;98609.81;10121409;29;20048;-73
2021/10/31 22:12:29;;;;;;;4.32;2.78;;;;;;;15.59;72.31;98614.16;10123993;29;20168;-73
2021/10/31 22:17:31;;;;;;;4.47;3.80;;;;;;;15.64;73.48;98611.69;10130437;29;20123;-72
2021/10/31 22:22:33;;;;;;;4.05;2.88;;;;;;;15.71;73.23;98609.88;10135681;29;20078;-72
2021/10/31 22:27:34;;;;;;;4.88;3.65;;;;;;;15.71;73.55;98605.34;10123197;29;20284;-72
2021/10/31 22:32:36;;;;;;;4.43;3.90;;;;;;;15.69;73.86;98595.84;10142515;29;20055;-71
2021/10/31 22:37:37;;;;;;;4.10;3.72;;;;;;;15.63;73.76;98602.00;10134920;29;20264;-72
2021/10/31 22:42:39;;;;;;;4.38;3.75;;;;;;;15.56;73.29;98600.09;10138584;29;20281;-71
2021/10/31 22:47:41;;;;;;;4.75;4.30;;;;;;;15.55;73.98;98605.66;10121835;29;20773;-71
2021/10/31 22:52:42;;;;;;;5.68;3.80;;;;;;;15.46;73.53;98596.09;10134376;29;20127;-71
2021/10/31 22:57:44;;;;;;;4.60;4.07;;;;;;;15.46;72.91;98604.16;10137570;29;20139;-71
2021/10/31 23:02:45;;;;;;;6.97;3.90;;;;;;;15.50;72.93;98608.09;10141720;29;20148;-73
2021/10/31 23:07:52;;;;;;;4.00;3.33;;;;;;;15.49;72.92;98607.28;10127084;29;20056;-72
2021/10/31 23:12:54;;;;;;;2.58;2.15;;;;;;;15.54;74.16;98604.81;10122472;29;20048;-69
2021/10/31 23:17:55;;;;;;;3.15;1.70;;;;;;;15.73;74.26;98621.25;10119186;29;20147;-69
2021/10/31 23:22:58;;;;;;;1.63;1.52;;;;;;;15.89;74.19;98622.81;10125391;29;20136;-72